sensor_id;sensor_type;location;lat;lon;timestamp;P1;durP1;ratioP1;P2;durP2;ratioP2
11951;SDS011;6036;41.840;23.486;2022-08-19T00:00:31;5.03;;;4.28;;
11951;SDS011;6036;41.840;23.486;2022-08-19T00:02:57;4.53;;;4.13;;
11951;SDS011;6036;41.840;23.486;2022-08-19T00:05:22;4.25;;;3.63;;
11951;SDS011;6036;41.840;23.486;2022-08-19T00:07:48;7.95;;;4.55;;
11951;SDS011;6036;41.840;23.486;2022-08-19T00:10:14;5.03;;;4.53;;
11951;SDS011;6036;41.840;23.486;2022-08-19T00:12:42;4.65;;;3.70;;
11951;SDS011;6036;41.840;23.486;2022-08-19T00:15:10;5.22;;;3.88;;
11951;SDS011;6036;41.840;23.486;2022-08-19T00:17:43;4.32;;;3.92;;
11951;SDS011;6036;41.840;23.486;2022-08-19T00:20:11;5.32;;;3.92;;
11951;SDS011;6036;41.840;23.486;2022-08-19T00:22:41;4.85;;;4.35;;
11951;SDS011;6036;41.840;23.486;2022-08-19T00:25:07;4.35;;;3.95;;
11951;SDS011;6036;41.840;23.486;2022-08-19T00:27:33;4.15;;;3.75;;
11951;SDS011;6036;41.840;23.486;2022-08-19T00:29:59;4.90;;;4.40;;
11951;SDS011;6036;41.840;23.486;2022-08-19T00:32:25;4.43;;;4.00;;
11951;SDS011;6036;41.840;23.486;2022-08-19T00:34:51;4.80;;;3.92;;
11951;SDS011;6036;41.840;23.486;2022-08-19T00:37:18;4.88;;;4.10;;
11951;SDS011;6036;41.840;23.486;2022-08-19T00:39:44;5.75;;;4.20;;
11951;SDS011;6036;41.840;23.486;2022-08-19T00:42:10;5.30;;;4.32;;
11951;SDS011;6036;41.840;23.486;2022-08-19T00:44:35;4.45;;;4.03;;
11951;SDS011;6036;41.840;23.486;2022-08-19T00:47:01;4.65;;;4.22;;
11951;SDS011;6036;41.840;23.486;2022-08-19T00:51:55;7.05;;;6.07;;
11951;SDS011;6036;41.840;23.486;2022-08-19T00:54:25;7.88;;;6.30;;
11951;SDS011;6036;41.840;23.486;2022-08-19T00:56:51;8.38;;;6.55;;
11951;SDS011;6036;41.840;23.486;2022-08-19T00:59:18;7.20;;;6.20;;
11951;SDS011;6036;41.840;23.486;2022-08-19T01:01:44;6.25;;;5.57;;
11951;SDS011;6036;41.840;23.486;2022-08-19T01:04:11;7.15;;;4.97;;
11951;SDS011;6036;41.840;23.486;2022-08-19T01:06:37;6.47;;;5.03;;
11951;SDS011;6036;41.840;23.486;2022-08-19T01:09:06;6.55;;;4.95;;
11951;SDS011;6036;41.840;23.486;2022-08-19T01:11:33;7.30;;;4.97;;
11951;SDS011;6036;41.840;23.486;2022-08-19T01:16:27;6.85;;;5.32;;
11951;SDS011;6036;41.840;23.486;2022-08-19T01:18:55;6.38;;;4.55;;
11951;SDS011;6036;41.840;23.486;2022-08-19T01:23:55;5.50;;;4.82;;
11951;SDS011;6036;41.840;23.486;2022-08-19T01:26:22;5.30;;;4.80;;
11951;SDS011;6036;41.840;23.486;2022-08-19T01:28:51;5.93;;;4.93;;
11951;SDS011;6036;41.840;23.486;2022-08-19T01:31:23;5.72;;;5.00;;
11951;SDS011;6036;41.840;23.486;2022-08-19T01:33:50;5.35;;;4.80;;
11951;SDS011;6036;41.840;23.486;2022-08-19T01:36:28;7.68;;;5.18;;
11951;SDS011;6036;41.840;23.486;2022-08-19T01:39:00;4.95;;;4.47;;
11951;SDS011;6036;41.840;23.486;2022-08-19T01:41:28;9.43;;;5.05;;
11951;SDS011;6036;41.840;23.486;2022-08-19T01:43:54;5.57;;;5.07;;
11951;SDS011;6036;41.840;23.486;2022-08-19T01:46:21;7.15;;;5.22;;
11951;SDS011;6036;41.840;23.486;2022-08-19T01:48:47;5.47;;;4.75;;
11951;SDS011;6036;41.840;23.486;2022-08-19T01:51:13;7.68;;;5.05;;
11951;SDS011;6036;41.840;23.486;2022-08-19T01:53:39;5.88;;;5.25;;
11951;SDS011;6036;41.840;23.486;2022-08-19T01:56:05;4.90;;;4.32;;
11951;SDS011;6036;41.840;23.486;2022-08-19T01:58:33;7.03;;;4.53;;
11951;SDS011;6036;41.840;23.486;2022-08-19T02:01:04;6.70;;;5.07;;
11951;SDS011;6036;41.840;23.486;2022-08-19T02:03:30;6.53;;;5.20;;
11951;SDS011;6036;41.840;23.486;2022-08-19T02:05:56;6.72;;;5.55;;
11951;SDS011;6036;41.840;23.486;2022-08-19T02:08:24;5.50;;;5.00;;
11951;SDS011;6036;41.840;23.486;2022-08-19T02:10:54;6.05;;;5.05;;
11951;SDS011;6036;41.840;23.486;2022-08-19T02:13:20;6.25;;;5.47;;
11951;SDS011;6036;41.840;23.486;2022-08-19T02:15:46;5.07;;;4.57;;
11951;SDS011;6036;41.840;23.486;2022-08-19T02:18:12;7.57;;;4.50;;
11951;SDS011;6036;41.840;23.486;2022-08-19T02:20:39;6.25;;;4.85;;
11951;SDS011;6036;41.840;23.486;2022-08-19T02:23:06;5.15;;;4.65;;
11951;SDS011;6036;41.840;23.486;2022-08-19T02:25:32;7.65;;;4.85;;
11951;SDS011;6036;41.840;23.486;2022-08-19T02:27:57;7.63;;;5.05;;
11951;SDS011;6036;41.840;23.486;2022-08-19T02:30:23;5.93;;;4.72;;
11951;SDS011;6036;41.840;23.486;2022-08-19T02:32:49;6.68;;;5.00;;
11951;SDS011;6036;41.840;23.486;2022-08-19T02:35:16;7.72;;;5.38;;
11951;SDS011;6036;41.840;23.486;2022-08-19T02:37:42;6.25;;;5.65;;
11951;SDS011;6036;41.840;23.486;2022-08-19T02:40:27;6.47;;;5.10;;
11951;SDS011;6036;41.840;23.486;2022-08-19T02:42:53;6.45;;;4.20;;
11951;SDS011;6036;41.840;23.486;2022-08-19T02:45:19;5.32;;;4.82;;
11951;SDS011;6036;41.840;23.486;2022-08-19T02:47:45;5.65;;;4.57;;
11951;SDS011;6036;41.840;23.486;2022-08-19T02:50:10;6.75;;;4.47;;
11951;SDS011;6036;41.840;23.486;2022-08-19T02:52:36;5.80;;;4.85;;
11951;SDS011;6036;41.840;23.486;2022-08-19T02:55:01;6.63;;;4.93;;
11951;SDS011;6036;41.840;23.486;2022-08-19T02:57:27;5.57;;;4.82;;
11951;SDS011;6036;41.840;23.486;2022-08-19T02:59:53;5.30;;;4.80;;
11951;SDS011;6036;41.840;23.486;2022-08-19T03:02:19;5.35;;;4.75;;
11951;SDS011;6036;41.840;23.486;2022-08-19T03:04:44;4.82;;;4.40;;
11951;SDS011;6036;41.840;23.486;2022-08-19T03:07:12;6.70;;;4.47;;
11951;SDS011;6036;41.840;23.486;2022-08-19T03:09:38;6.50;;;4.88;;
11951;SDS011;6036;41.840;23.486;2022-08-19T03:12:04;6.53;;;5.18;;
11951;SDS011;6036;41.840;23.486;2022-08-19T03:14:31;7.60;;;4.47;;
11951;SDS011;6036;41.840;23.486;2022-08-19T03:16:57;6.63;;;4.72;;
11951;SDS011;6036;41.840;23.486;2022-08-19T03:19:22;5.25;;;4.72;;
11951;SDS011;6036;41.840;23.486;2022-08-19T03:21:48;7.53;;;5.50;;
11951;SDS011;6036;41.840;23.486;2022-08-19T03:24:15;5.57;;;4.38;;
11951;SDS011;6036;41.840;23.486;2022-08-19T03:26:44;7.60;;;4.82;;
11951;SDS011;6036;41.840;23.486;2022-08-19T03:29:11;5.45;;;4.95;;
11951;SDS011;6036;41.840;23.486;2022-08-19T03:31:37;6.70;;;5.10;;
11951;SDS011;6036;41.840;23.486;2022-08-19T03:34:04;6.72;;;5.28;;
11951;SDS011;6036;41.840;23.486;2022-08-19T03:36:30;6.18;;;5.07;;
11951;SDS011;6036;41.840;23.486;2022-08-19T03:38:57;5.55;;;4.55;;
11951;SDS011;6036;41.840;23.486;2022-08-19T03:41:29;5.60;;;5.10;;
11951;SDS011;6036;41.840;23.486;2022-08-19T03:43:57;8.10;;;5.13;;
11951;SDS011;6036;41.840;23.486;2022-08-19T03:46:24;6.32;;;5.22;;
11951;SDS011;6036;41.840;23.486;2022-08-19T03:48:52;5.30;;;4.65;;
11951;SDS011;6036;41.840;23.486;2022-08-19T03:51:41;5.03;;;4.47;;
11951;SDS011;6036;41.840;23.486;2022-08-19T03:54:08;5.70;;;5.10;;
11951;SDS011;6036;41.840;23.486;2022-08-19T03:56:37;5.63;;;5.03;;
11951;SDS011;6036;41.840;23.486;2022-08-19T03:59:03;6.63;;;5.03;;
11951;SDS011;6036;41.840;23.486;2022-08-19T04:01:31;9.18;;;5.65;;
11951;SDS011;6036;41.840;23.486;2022-08-19T04:03:57;7.80;;;5.72;;
11951;SDS011;6036;41.840;23.486;2022-08-19T04:06:31;8.77;;;5.47;;
11951;SDS011;6036;41.840;23.486;2022-08-19T04:08:59;8.15;;;5.32;;
11951;SDS011;6036;41.840;23.486;2022-08-19T04:11:28;7.38;;;5.53;;
11951;SDS011;6036;41.840;23.486;2022-08-19T04:13:56;6.85;;;5.88;;
11951;SDS011;6036;41.840;23.486;2022-08-19T04:16:23;8.95;;;6.05;;
11951;SDS011;6036;41.840;23.486;2022-08-19T04:18:53;6.88;;;5.80;;
11951;SDS011;6036;41.840;23.486;2022-08-19T04:21:21;8.27;;;5.78;;
11951;SDS011;6036;41.840;23.486;2022-08-19T04:23:50;7.00;;;4.97;;
11951;SDS011;6036;41.840;23.486;2022-08-19T04:26:16;9.00;;;5.82;;
11951;SDS011;6036;41.840;23.486;2022-08-19T04:28:45;6.30;;;5.13;;
11951;SDS011;6036;41.840;23.486;2022-08-19T04:31:19;7.03;;;4.78;;
11951;SDS011;6036;41.840;23.486;2022-08-19T04:33:46;8.02;;;4.95;;
11951;SDS011;6036;41.840;23.486;2022-08-19T04:36:23;7.53;;;5.10;;
11951;SDS011;6036;41.840;23.486;2022-08-19T04:38:53;8.50;;;5.20;;
11951;SDS011;6036;41.840;23.486;2022-08-19T04:44:04;7.60;;;5.60;;
11951;SDS011;6036;41.840;23.486;2022-08-19T04:46:30;6.25;;;5.22;;
11951;SDS011;6036;41.840;23.486;2022-08-19T04:48:56;7.00;;;4.68;;
11951;SDS011;6036;41.840;23.486;2022-08-19T04:51:24;7.35;;;5.50;;
11951;SDS011;6036;41.840;23.486;2022-08-19T04:53:49;8.30;;;5.25;;
11951;SDS011;6036;41.840;23.486;2022-08-19T04:56:17;7.13;;;5.65;;
11951;SDS011;6036;41.840;23.486;2022-08-19T04:58:45;8.93;;;5.78;;
11951;SDS011;6036;41.840;23.486;2022-08-19T05:01:17;9.38;;;5.88;;
11951;SDS011;6036;41.840;23.486;2022-08-19T05:03:45;6.60;;;5.82;;
11951;SDS011;6036;41.840;23.486;2022-08-19T05:06:11;9.52;;;6.13;;
11951;SDS011;6036;41.840;23.486;2022-08-19T05:08:38;9.70;;;6.70;;
11951;SDS011;6036;41.840;23.486;2022-08-19T05:11:13;10.38;;;7.32;;
11951;SDS011;6036;41.840;23.486;2022-08-19T05:13:43;10.88;;;7.57;;
11951;SDS011;6036;41.840;23.486;2022-08-19T05:16:10;11.55;;;8.32;;
11951;SDS011;6036;41.840;23.486;2022-08-19T05:18:37;13.25;;;8.82;;
11951;SDS011;6036;41.840;23.486;2022-08-19T05:21:21;15.98;;;10.82;;
11951;SDS011;6036;41.840;23.486;2022-08-19T05:24:05;22.73;;;13.48;;
11951;SDS011;6036;41.840;23.486;2022-08-19T05:26:37;14.27;;;11.70;;
11951;SDS011;6036;41.840;23.486;2022-08-19T05:29:05;16.15;;;12.30;;
11951;SDS011;6036;41.840;23.486;2022-08-19T05:31:32;15.45;;;10.52;;
11951;SDS011;6036;41.840;23.486;2022-08-19T05:33:58;13.95;;;9.30;;
11951;SDS011;6036;41.840;23.486;2022-08-19T05:36:26;12.32;;;8.27;;
11951;SDS011;6036;41.840;23.486;2022-08-19T05:41:19;9.30;;;7.22;;
11951;SDS011;6036;41.840;23.486;2022-08-19T05:43:46;11.73;;;8.32;;
11951;SDS011;6036;41.840;23.486;2022-08-19T05:46:18;8.77;;;7.57;;
11951;SDS011;6036;41.840;23.486;2022-08-19T05:48:45;9.30;;;7.88;;
11951;SDS011;6036;41.840;23.486;2022-08-19T05:51:10;18.75;;;9.38;;
11951;SDS011;6036;41.840;23.486;2022-08-19T05:53:36;9.80;;;8.27;;
11951;SDS011;6036;41.840;23.486;2022-08-19T05:56:09;9.95;;;8.77;;
11951;SDS011;6036;41.840;23.486;2022-08-19T05:58:43;11.05;;;8.65;;
11951;SDS011;6036;41.840;23.486;2022-08-19T06:01:14;10.85;;;9.32;;
11951;SDS011;6036;41.840;23.486;2022-08-19T06:03:41;10.07;;;8.70;;
11951;SDS011;6036;41.840;23.486;2022-08-19T06:06:07;11.82;;;8.98;;
11951;SDS011;6036;41.840;23.486;2022-08-19T06:08:34;12.68;;;11.38;;
11951;SDS011;6036;41.840;23.486;2022-08-19T06:13:45;14.13;;;10.30;;
11951;SDS011;6036;41.840;23.486;2022-08-19T06:16:13;11.35;;;9.98;;
11951;SDS011;6036;41.840;23.486;2022-08-19T06:18:45;11.48;;;10.27;;
11951;SDS011;6036;41.840;23.486;2022-08-19T06:21:10;10.77;;;9.68;;
11951;SDS011;6036;41.840;23.486;2022-08-19T06:23:36;9.55;;;8.57;;
11951;SDS011;6036;41.840;23.486;2022-08-19T06:26:01;10.73;;;8.88;;
11951;SDS011;6036;41.840;23.486;2022-08-19T06:28:27;14.55;;;9.65;;
11951;SDS011;6036;41.840;23.486;2022-08-19T06:30:52;14.20;;;10.55;;
11951;SDS011;6036;41.840;23.486;2022-08-19T06:33:18;13.02;;;9.98;;
11951;SDS011;6036;41.840;23.486;2022-08-19T06:35:43;12.20;;;8.95;;
11951;SDS011;6036;41.840;23.486;2022-08-19T06:38:08;13.68;;;8.85;;
11951;SDS011;6036;41.840;23.486;2022-08-19T06:40:34;10.40;;;9.30;;
11951;SDS011;6036;41.840;23.486;2022-08-19T06:43:01;13.55;;;9.75;;
11951;SDS011;6036;41.840;23.486;2022-08-19T06:45:27;9.85;;;7.78;;
11951;SDS011;6036;41.840;23.486;2022-08-19T06:47:53;11.00;;;7.78;;
11951;SDS011;6036;41.840;23.486;2022-08-19T06:50:22;9.38;;;7.68;;
11951;SDS011;6036;41.840;23.486;2022-08-19T06:52:48;8.20;;;7.00;;
11951;SDS011;6036;41.840;23.486;2022-08-19T06:55:14;11.45;;;8.35;;
11951;SDS011;6036;41.840;23.486;2022-08-19T06:57:40;13.43;;;7.22;;
11951;SDS011;6036;41.840;23.486;2022-08-19T07:00:07;8.05;;;7.25;;
11951;SDS011;6036;41.840;23.486;2022-08-19T07:02:39;11.20;;;7.75;;
11951;SDS011;6036;41.840;23.486;2022-08-19T07:05:06;9.30;;;6.85;;
11951;SDS011;6036;41.840;23.486;2022-08-19T07:07:31;10.23;;;6.85;;
11951;SDS011;6036;41.840;23.486;2022-08-19T07:09:57;7.90;;;6.15;;
11951;SDS011;6036;41.840;23.486;2022-08-19T07:12:23;7.85;;;6.78;;
11951;SDS011;6036;41.840;23.486;2022-08-19T07:14:48;6.63;;;5.97;;
11951;SDS011;6036;41.840;23.486;2022-08-19T07:17:14;15.75;;;6.28;;
11951;SDS011;6036;41.840;23.486;2022-08-19T07:19:40;7.18;;;5.90;;
11951;SDS011;6036;41.840;23.486;2022-08-19T07:31:53;7.22;;;5.40;;
11951;SDS011;6036;41.840;23.486;2022-08-19T07:34:24;5.85;;;5.32;;
11951;SDS011;6036;41.840;23.486;2022-08-19T07:36:50;8.23;;;5.57;;
11951;SDS011;6036;41.840;23.486;2022-08-19T07:39:18;5.80;;;4.97;;
11951;SDS011;6036;41.840;23.486;2022-08-19T07:41:47;8.52;;;4.90;;
11951;SDS011;6036;41.840;23.486;2022-08-19T07:44:12;5.53;;;4.85;;
11951;SDS011;6036;41.840;23.486;2022-08-19T07:46:42;9.57;;;5.13;;
11951;SDS011;6036;41.840;23.486;2022-08-19T07:49:09;5.22;;;4.72;;
11951;SDS011;6036;41.840;23.486;2022-08-19T07:51:44;7.63;;;5.25;;
11951;SDS011;6036;41.840;23.486;2022-08-19T07:54:30;5.00;;;4.00;;
11951;SDS011;6036;41.840;23.486;2022-08-19T07:56:59;4.95;;;4.47;;
11951;SDS011;6036;41.840;23.486;2022-08-19T07:59:25;5.18;;;4.57;;
11951;SDS011;6036;41.840;23.486;2022-08-19T08:01:53;5.22;;;4.22;;
11951;SDS011;6036;41.840;23.486;2022-08-19T08:04:19;4.80;;;4.30;;
11951;SDS011;6036;41.840;23.486;2022-08-19T08:07:04;5.82;;;4.10;;
11951;SDS011;6036;41.840;23.486;2022-08-19T08:09:49;8.02;;;4.53;;
11951;SDS011;6036;41.840;23.486;2022-08-19T08:12:16;3.78;;;3.47;;
11951;SDS011;6036;41.840;23.486;2022-08-19T08:14:45;4.45;;;4.05;;
11951;SDS011;6036;41.840;23.486;2022-08-19T08:17:14;6.10;;;4.47;;
11951;SDS011;6036;41.840;23.486;2022-08-19T08:19:42;4.55;;;3.97;;
11951;SDS011;6036;41.840;23.486;2022-08-19T08:22:09;3.83;;;3.53;;
11951;SDS011;6036;41.840;23.486;2022-08-19T08:24:55;5.07;;;4.18;;
11951;SDS011;6036;41.840;23.486;2022-08-19T08:27:23;6.05;;;3.78;;
11951;SDS011;6036;41.840;23.486;2022-08-19T08:29:49;3.88;;;3.55;;
11951;SDS011;6036;41.840;23.486;2022-08-19T08:32:14;4.40;;;3.33;;
11951;SDS011;6036;41.840;23.486;2022-08-19T08:34:40;4.20;;;3.53;;
11951;SDS011;6036;41.840;23.486;2022-08-19T08:37:06;10.18;;;3.63;;
11951;SDS011;6036;41.840;23.486;2022-08-19T08:39:31;4.40;;;3.45;;
11951;SDS011;6036;41.840;23.486;2022-08-19T08:42:08;3.60;;;3.25;;
11951;SDS011;6036;41.840;23.486;2022-08-19T08:45:03;6.57;;;3.80;;
11951;SDS011;6036;41.840;23.486;2022-08-19T08:47:33;3.30;;;2.80;;
11951;SDS011;6036;41.840;23.486;2022-08-19T08:50:06;3.28;;;2.83;;
11951;SDS011;6036;41.840;23.486;2022-08-19T08:52:41;3.50;;;3.20;;
11951;SDS011;6036;41.840;23.486;2022-08-19T08:55:14;4.97;;;3.30;;
11951;SDS011;6036;41.840;23.486;2022-08-19T09:00:27;3.42;;;2.85;;
11951;SDS011;6036;41.840;23.486;2022-08-19T09:02:55;3.40;;;2.55;;
11951;SDS011;6036;41.840;23.486;2022-08-19T09:05:23;5.10;;;2.90;;
11951;SDS011;6036;41.840;23.486;2022-08-19T09:08:03;3.38;;;3.08;;
11951;SDS011;6036;41.840;23.486;2022-08-19T09:10:51;3.53;;;3.22;;
11951;SDS011;6036;41.840;23.486;2022-08-19T09:15:57;3.38;;;3.08;;
11951;SDS011;6036;41.840;23.486;2022-08-19T09:18:38;6.80;;;3.03;;
11951;SDS011;6036;41.840;23.486;2022-08-19T09:21:04;2.65;;;2.45;;
11951;SDS011;6036;41.840;23.486;2022-08-19T09:23:30;2.92;;;2.72;;
11951;SDS011;6036;41.840;23.486;2022-08-19T09:25:55;3.17;;;2.70;;
11951;SDS011;6036;41.840;23.486;2022-08-19T09:28:20;3.03;;;2.50;;
11951;SDS011;6036;41.840;23.486;2022-08-19T09:30:46;5.13;;;2.75;;
11951;SDS011;6036;41.840;23.486;2022-08-19T09:33:11;11.43;;;3.78;;
11951;SDS011;6036;41.840;23.486;2022-08-19T09:35:37;4.00;;;3.40;;
11951;SDS011;6036;41.840;23.486;2022-08-19T09:38:02;5.65;;;2.50;;
11951;SDS011;6036;41.840;23.486;2022-08-19T09:40:28;2.33;;;2.15;;
11951;SDS011;6036;41.840;23.486;2022-08-19T09:42:54;2.33;;;2.03;;
11951;SDS011;6036;41.840;23.486;2022-08-19T09:45:22;3.08;;;2.20;;
11951;SDS011;6036;41.840;23.486;2022-08-19T09:47:51;2.80;;;2.30;;
11951;SDS011;6036;41.840;23.486;2022-08-19T09:50:17;2.40;;;2.20;;
11951;SDS011;6036;41.840;23.486;2022-08-19T09:52:43;2.80;;;2.60;;
11951;SDS011;6036;41.840;23.486;2022-08-19T09:55:10;2.53;;;2.10;;
11951;SDS011;6036;41.840;23.486;2022-08-19T09:57:36;4.15;;;2.47;;
11951;SDS011;6036;41.840;23.486;2022-08-19T10:00:03;3.00;;;2.08;;
11951;SDS011;6036;41.840;23.486;2022-08-19T10:02:33;2.25;;;1.90;;
11951;SDS011;6036;41.840;23.486;2022-08-19T10:04:58;2.03;;;1.90;;
11951;SDS011;6036;41.840;23.486;2022-08-19T10:07:42;2.60;;;2.40;;
11951;SDS011;6036;41.840;23.486;2022-08-19T10:10:08;2.90;;;2.55;;
11951;SDS011;6036;41.840;23.486;2022-08-19T10:12:34;3.50;;;2.28;;
11951;SDS011;6036;41.840;23.486;2022-08-19T10:15:00;3.00;;;2.67;;
11951;SDS011;6036;41.840;23.486;2022-08-19T10:17:26;2.90;;;2.30;;
11951;SDS011;6036;41.840;23.486;2022-08-19T10:19:53;3.22;;;2.38;;
11951;SDS011;6036;41.840;23.486;2022-08-19T10:22:19;3.13;;;2.40;;
11951;SDS011;6036;41.840;23.486;2022-08-19T10:24:47;3.67;;;2.35;;
11951;SDS011;6036;41.840;23.486;2022-08-19T10:27:14;2.38;;;2.17;;
11951;SDS011;6036;41.840;23.486;2022-08-19T10:29:41;2.30;;;2.10;;
11951;SDS011;6036;41.840;23.486;2022-08-19T10:32:08;3.15;;;2.80;;
11951;SDS011;6036;41.840;23.486;2022-08-19T10:34:36;2.80;;;2.60;;
11951;SDS011;6036;41.840;23.486;2022-08-19T10:37:03;2.83;;;2.33;;
11951;SDS011;6036;41.840;23.486;2022-08-19T10:39:34;3.78;;;2.30;;
11951;SDS011;6036;41.840;23.486;2022-08-19T10:42:09;2.67;;;2.47;;
11951;SDS011;6036;41.840;23.486;2022-08-19T10:44:35;3.20;;;2.75;;
11951;SDS011;6036;41.840;23.486;2022-08-19T10:47:01;3.38;;;2.47;;
11951;SDS011;6036;41.840;23.486;2022-08-19T10:49:28;2.97;;;2.67;;
11951;SDS011;6036;41.840;23.486;2022-08-19T10:51:54;2.60;;;2.40;;
11951;SDS011;6036;41.840;23.486;2022-08-19T10:54:39;2.80;;;2.60;;
11951;SDS011;6036;41.840;23.486;2022-08-19T10:57:23;3.10;;;2.80;;
11951;SDS011;6036;41.840;23.486;2022-08-19T10:59:54;3.92;;;2.83;;
11951;SDS011;6036;41.840;23.486;2022-08-19T11:02:20;3.00;;;2.80;;
11951;SDS011;6036;41.840;23.486;2022-08-19T11:04:47;2.85;;;2.60;;
11951;SDS011;6036;41.840;23.486;2022-08-19T11:07:14;5.10;;;2.75;;
11951;SDS011;6036;41.840;23.486;2022-08-19T11:09:41;3.10;;;2.80;;
11951;SDS011;6036;41.840;23.486;2022-08-19T11:12:07;3.17;;;2.75;;
11951;SDS011;6036;41.840;23.486;2022-08-19T11:14:34;3.30;;;3.00;;
11951;SDS011;6036;41.840;23.486;2022-08-19T11:17:00;3.22;;;2.75;;
11951;SDS011;6036;41.840;23.486;2022-08-19T11:19:27;2.97;;;2.78;;
11951;SDS011;6036;41.840;23.486;2022-08-19T11:21:52;6.10;;;2.50;;
11951;SDS011;6036;41.840;23.486;2022-08-19T11:24:23;2.90;;;2.70;;
11951;SDS011;6036;41.840;23.486;2022-08-19T11:26:51;2.67;;;2.47;;
11951;SDS011;6036;41.840;23.486;2022-08-19T11:29:22;3.47;;;2.75;;
11951;SDS011;6036;41.840;23.486;2022-08-19T11:34:19;2.95;;;2.65;;
11951;SDS011;6036;41.840;23.486;2022-08-19T11:36:52;2.80;;;2.60;;
11951;SDS011;6036;41.840;23.486;2022-08-19T11:39:18;3.33;;;3.05;;
11951;SDS011;6036;41.840;23.486;2022-08-19T11:41:46;2.78;;;2.58;;
11951;SDS011;6036;41.840;23.486;2022-08-19T11:44:11;2.67;;;2.47;;
11951;SDS011;6036;41.840;23.486;2022-08-19T11:46:39;3.95;;;2.80;;
11951;SDS011;6036;41.840;23.486;2022-08-19T11:49:05;3.20;;;2.90;;
11951;SDS011;6036;41.840;23.486;2022-08-19T11:51:34;3.42;;;2.90;;
11951;SDS011;6036;41.840;23.486;2022-08-19T11:54:00;2.83;;;2.63;;
11951;SDS011;6036;41.840;23.486;2022-08-19T11:56:26;3.25;;;2.95;;
11951;SDS011;6036;41.840;23.486;2022-08-19T11:58:53;4.93;;;2.78;;
11951;SDS011;6036;41.840;23.486;2022-08-19T12:01:20;4.28;;;2.88;;
11951;SDS011;6036;41.840;23.486;2022-08-19T12:03:47;3.83;;;2.60;;
11951;SDS011;6036;41.840;23.486;2022-08-19T12:06:16;3.30;;;3.00;;
11951;SDS011;6036;41.840;23.486;2022-08-19T12:08:44;3.00;;;2.80;;
11951;SDS011;6036;41.840;23.486;2022-08-19T12:11:11;2.90;;;2.70;;
11951;SDS011;6036;41.840;23.486;2022-08-19T12:13:39;2.97;;;2.67;;
11951;SDS011;6036;41.840;23.486;2022-08-19T12:16:08;3.03;;;2.72;;
11951;SDS011;6036;41.840;23.486;2022-08-19T12:18:37;3.67;;;2.83;;
11951;SDS011;6036;41.840;23.486;2022-08-19T12:21:03;3.10;;;2.80;;
11951;SDS011;6036;41.840;23.486;2022-08-19T12:23:29;3.00;;;2.78;;
11951;SDS011;6036;41.840;23.486;2022-08-19T12:25:55;3.22;;;2.92;;
11951;SDS011;6036;41.840;23.486;2022-08-19T12:28:24;3.58;;;2.70;;
11951;SDS011;6036;41.840;23.486;2022-08-19T12:30:50;3.88;;;2.90;;
11951;SDS011;6036;41.840;23.486;2022-08-19T12:33:17;3.60;;;2.92;;
11951;SDS011;6036;41.840;23.486;2022-08-19T12:35:44;3.13;;;2.80;;
11951;SDS011;6036;41.840;23.486;2022-08-19T12:38:12;2.90;;;2.60;;
11951;SDS011;6036;41.840;23.486;2022-08-19T12:40:39;3.07;;;2.47;;
11951;SDS011;6036;41.840;23.486;2022-08-19T12:43:05;3.92;;;2.53;;
11951;SDS011;6036;41.840;23.486;2022-08-19T12:45:32;3.20;;;2.90;;
11951;SDS011;6036;41.840;23.486;2022-08-19T12:47:58;3.50;;;2.83;;
11951;SDS011;6036;41.840;23.486;2022-08-19T12:50:24;4.43;;;3.38;;
11951;SDS011;6036;41.840;23.486;2022-08-19T12:52:50;3.23;;;2.93;;
11951;SDS011;6036;41.840;23.486;2022-08-19T12:55:15;3.90;;;2.90;;
11951;SDS011;6036;41.840;23.486;2022-08-19T12:57:43;3.45;;;3.03;;
11951;SDS011;6036;41.840;23.486;2022-08-19T13:00:11;3.33;;;3.03;;
11951;SDS011;6036;41.840;23.486;2022-08-19T13:02:42;3.75;;;3.00;;
11951;SDS011;6036;41.840;23.486;2022-08-19T13:05:11;3.17;;;2.97;;
11951;SDS011;6036;41.840;23.486;2022-08-19T13:07:39;5.18;;;3.17;;
11951;SDS011;6036;41.840;23.486;2022-08-19T13:10:06;5.25;;;3.13;;
11951;SDS011;6036;41.840;23.486;2022-08-19T13:12:32;3.53;;;2.80;;
11951;SDS011;6036;41.840;23.486;2022-08-19T13:14:58;3.67;;;2.93;;
11951;SDS011;6036;41.840;23.486;2022-08-19T13:17:23;3.20;;;2.90;;
11951;SDS011;6036;41.840;23.486;2022-08-19T13:19:49;2.92;;;2.63;;
11951;SDS011;6036;41.840;23.486;2022-08-19T13:22:15;3.35;;;3.05;;
11951;SDS011;6036;41.840;23.486;2022-08-19T13:24:41;4.93;;;3.08;;
11951;SDS011;6036;41.840;23.486;2022-08-19T13:27:07;3.65;;;2.75;;
11951;SDS011;6036;41.840;23.486;2022-08-19T13:29:32;5.30;;;2.72;;
11951;SDS011;6036;41.840;23.486;2022-08-19T13:32:16;2.95;;;2.65;;
11951;SDS011;6036;41.840;23.486;2022-08-19T13:35:00;3.63;;;3.08;;
11951;SDS011;6036;41.840;23.486;2022-08-19T13:37:26;3.25;;;2.95;;
11951;SDS011;6036;41.840;23.486;2022-08-19T13:40:11;3.08;;;2.78;;
11951;SDS011;6036;41.840;23.486;2022-08-19T13:42:48;3.33;;;2.72;;
11951;SDS011;6036;41.840;23.486;2022-08-19T13:45:15;3.55;;;3.22;;
11951;SDS011;6036;41.840;23.486;2022-08-19T13:47:44;3.45;;;3.05;;
11951;SDS011;6036;41.840;23.486;2022-08-19T13:50:15;3.17;;;2.88;;
11951;SDS011;6036;41.840;23.486;2022-08-19T13:52:42;3.20;;;2.90;;
11951;SDS011;6036;41.840;23.486;2022-08-19T13:55:09;3.03;;;2.80;;
11951;SDS011;6036;41.840;23.486;2022-08-19T13:57:35;3.67;;;3.38;;
11951;SDS011;6036;41.840;23.486;2022-08-19T14:00:04;4.85;;;2.88;;
11951;SDS011;6036;41.840;23.486;2022-08-19T14:02:34;3.40;;;2.97;;
11951;SDS011;6036;41.840;23.486;2022-08-19T14:04:59;4.50;;;3.27;;
11951;SDS011;6036;41.840;23.486;2022-08-19T14:07:25;3.43;;;3.13;;
11951;SDS011;6036;41.840;23.486;2022-08-19T14:09:50;3.90;;;3.30;;
11951;SDS011;6036;41.840;23.486;2022-08-19T14:12:20;12.80;;;3.83;;
11951;SDS011;6036;41.840;23.486;2022-08-19T14:14:46;4.25;;;3.28;;
11951;SDS011;6036;41.840;23.486;2022-08-19T14:17:12;3.70;;;3.40;;
11951;SDS011;6036;41.840;23.486;2022-08-19T14:19:37;3.53;;;3.17;;
11951;SDS011;6036;41.840;23.486;2022-08-19T14:22:03;4.33;;;2.83;;
11951;SDS011;6036;41.840;23.486;2022-08-19T14:24:30;4.22;;;3.47;;
11951;SDS011;6036;41.840;23.486;2022-08-19T14:26:57;3.78;;;3.17;;
11951;SDS011;6036;41.840;23.486;2022-08-19T14:29:23;3.50;;;3.20;;
11951;SDS011;6036;41.840;23.486;2022-08-19T14:31:48;4.23;;;3.30;;
11951;SDS011;6036;41.840;23.486;2022-08-19T14:34:14;4.97;;;3.27;;
11951;SDS011;6036;41.840;23.486;2022-08-19T14:36:39;3.93;;;3.23;;
11951;SDS011;6036;41.840;23.486;2022-08-19T14:39:06;4.10;;;3.50;;
11951;SDS011;6036;41.840;23.486;2022-08-19T14:44:00;3.78;;;3.33;;
11951;SDS011;6036;41.840;23.486;2022-08-19T14:46:26;4.00;;;3.53;;
11951;SDS011;6036;41.840;23.486;2022-08-19T14:48:53;5.65;;;3.40;;
11951;SDS011;6036;41.840;23.486;2022-08-19T14:51:20;4.93;;;3.33;;
11951;SDS011;6036;41.840;23.486;2022-08-19T14:53:49;8.75;;;3.90;;
11951;SDS011;6036;41.840;23.486;2022-08-19T14:56:17;5.00;;;3.53;;
11951;SDS011;6036;41.840;23.486;2022-08-19T14:58:44;3.53;;;3.20;;
11951;SDS011;6036;41.840;23.486;2022-08-19T15:01:11;4.63;;;3.60;;
11951;SDS011;6036;41.840;23.486;2022-08-19T15:03:37;9.15;;;4.00;;
11951;SDS011;6036;41.840;23.486;2022-08-19T15:06:05;5.18;;;3.72;;
11951;SDS011;6036;41.840;23.486;2022-08-19T15:08:32;4.93;;;3.67;;
11951;SDS011;6036;41.840;23.486;2022-08-19T15:11:00;5.73;;;3.90;;
11951;SDS011;6036;41.840;23.486;2022-08-19T15:13:26;5.80;;;4.05;;
11951;SDS011;6036;41.840;23.486;2022-08-19T15:15:52;5.18;;;4.20;;
11951;SDS011;6036;41.840;23.486;2022-08-19T15:18:19;6.40;;;4.15;;
11951;SDS011;6036;41.840;23.486;2022-08-19T15:20:45;5.07;;;3.92;;
11951;SDS011;6036;41.840;23.486;2022-08-19T15:23:13;5.70;;;4.40;;
11951;SDS011;6036;41.840;23.486;2022-08-19T15:25:40;5.20;;;3.92;;